createdAt,value
2022-10-03T00:00:59.267Z,99804.91
2022-10-03T00:06:36.510Z,99805.56
2022-10-03T00:12:04.061Z,99806.41
2022-10-03T00:17:37.900Z,99808.22
2022-10-03T00:23:08.865Z,99803.78
2022-10-03T00:29:19.028Z,99805.09
2022-10-03T00:34:52.733Z,99800.25
2022-10-03T00:40:47.784Z,99801.50
2022-10-03T00:46:24.987Z,99788.06
2022-10-03T00:52:29.754Z,99776.00
2022-10-03T00:58:29.175Z,99782.59
2022-10-03T01:04:06.160Z,99775.50
2022-10-03T01:10:14.258Z,99763.28
2022-10-03T01:15:56.353Z,99753.91
2022-10-03T01:22:02.107Z,99754.28
2022-10-03T01:27:59.274Z,99758.59
2022-10-03T01:33:44.581Z,99757.88
2022-10-03T01:39:15.820Z,99756.00
2022-10-03T01:44:43.749Z,99749.41
2022-10-03T01:50:05.603Z,99750.25
2022-10-03T01:55:36.297Z,99747.59
2022-10-03T02:01:01.207Z,99747.59
2022-10-03T02:06:35.390Z,99739.25
2022-10-03T02:12:04.172Z,99735.88
2022-10-03T02:17:58.305Z,99742.06
2022-10-03T02:23:26.225Z,99733.09
2022-10-03T02:29:03.252Z,99729.34
2022-10-03T02:34:39.950Z,99725.22
2022-10-03T02:40:20.733Z,99722.56
2022-10-03T02:46:10.564Z,99720.00
2022-10-03T02:51:51.451Z,99722.97
2022-10-03T02:57:50.803Z,99720.88
2022-10-03T03:03:38.963Z,99724.72
2022-10-03T03:09:19.101Z,99719.22
2022-10-03T03:15:25.949Z,99714.69
2022-10-03T03:21:10.603Z,99710.13
2022-10-03T03:26:50.655Z,99696.50
2022-10-03T03:32:29.184Z,99698.16
2022-10-03T03:37:54.020Z,99688.63
2022-10-03T03:43:24.853Z,99675.44
2022-10-03T03:48:53.969Z,99686.81
2022-10-03T03:54:36.431Z,99677.06
2022-10-03T04:00:22.458Z,99679.13
2022-10-03T04:06:08.642Z,99667.25
2022-10-03T04:11:42.966Z,99661.81
2022-10-03T04:17:36.184Z,99662.03
2022-10-03T04:23:06.651Z,99647.31
2022-10-03T04:29:06.445Z,99632.72
2022-10-03T04:34:33.934Z,99637.47
2022-10-03T04:40:08.461Z,99632.06
2022-10-03T04:45:45.808Z,99630.13
2022-10-03T04:51:54.612Z,99633.22
2022-10-03T04:57:47.252Z,99617.88
2022-10-03T05:03:17.139Z,99622.91
2022-10-03T05:08:55.523Z,99608.25
2022-10-03T05:14:28.384Z,99614.03
2022-10-03T05:20:02.368Z,99611.03
2022-10-03T05:25:48.641Z,99603.44
2022-10-03T05:31:44.314Z,99609.78
2022-10-03T05:37:09.227Z,99612.22
2022-10-03T05:42:49.431Z,99608.28
2022-10-03T05:48:27.895Z,99606.06
2022-10-03T05:54:20.750Z,99612.13
2022-10-03T06:00:13.583Z,99606.75
2022-10-03T06:05:58.264Z,99598.16
2022-10-03T06:12:00.035Z,99584.19
2022-10-03T06:17:46.767Z,99580.44
2022-10-03T06:23:14.322Z,99587.19
2022-10-03T06:28:54.847Z,99576.75
2022-10-03T06:34:25.439Z,99577.00
2022-10-03T06:40:16.491Z,99569.22
2022-10-03T06:45:59.620Z,99562.13
2022-10-03T06:51:38.437Z,99556.09
2022-10-03T06:57:32.766Z,99548.03
2022-10-03T07:03:31.477Z,99558.47
2022-10-03T07:09:38.120Z,99564.69
2022-10-03T07:16:02.219Z,99569.16
2022-10-03T07:21:27.578Z,99564.97
2022-10-03T07:27:24.559Z,99580.66
2022-10-03T07:33:16.757Z,99565.69
2022-10-03T07:38:47.844Z,99569.56
2022-10-03T07:44:34.851Z,99575.75
2022-10-03T07:50:18.905Z,99575.13
2022-10-03T07:56:09.349Z,99576.06
2022-10-03T08:01:40.992Z,99567.38
2022-10-03T08:07:11.127Z,99572.72
2022-10-03T08:12:51.802Z,99565.03
2022-10-03T08:18:43.991Z,99559.69
2022-10-03T08:24:27.105Z,99562.38
2022-10-03T08:30:11.987Z,99567.97
2022-10-03T08:35:55.567Z,99570.16
2022-10-03T08:41:44.486Z,99564.72
2022-10-03T08:47:27.864Z,99567.81
2022-10-03T08:53:08.746Z,99567.97
2022-10-03T08:58:54.603Z,99562.88
2022-10-03T09:04:22.137Z,99574.94
2022-10-03T09:10:14.515Z,99578.75
2022-10-03T09:15:45.547Z,99559.78
2022-10-03T09:21:13.395Z,99577.75
2022-10-03T09:27:12.771Z,99579.50
2022-10-03T09:32:43.415Z,99590.38
2022-10-03T09:38:38.735Z,99585.97
2022-10-03T09:44:09.326Z,99605.22
2022-10-03T09:50:05.363Z,99605.84
2022-10-03T09:55:44.842Z,99600.25
2022-10-03T10:01:09.672Z,99604.78
2022-10-03T10:07:08.916Z,99610.72
2022-10-03T10:12:43.617Z,99621.88
2022-10-03T10:18:59.669Z,99625.97
2022-10-03T10:24:30.333Z,99630.72
2022-10-03T10:30:36.944Z,99632.75
2022-10-03T10:36:43.950Z,99637.94
2022-10-03T10:42:30.447Z,99642.38
2022-10-03T10:48:19.062Z,99644.13
2022-10-03T10:53:59.070Z,99673.31
2022-10-03T11:00:12.205Z,99683.69
2022-10-03T11:05:43.258Z,99688.22
2022-10-03T11:11:26.849Z,99709.53
2022-10-03T11:17:17.702Z,99725.41
2022-10-03T11:23:01.073Z,99722.06
2022-10-03T11:28:38.521Z,99745.69
2022-10-03T11:34:37.849Z,99747.34
2022-10-03T11:40:27.313Z,99772.56
2022-10-03T11:46:03.415Z,99775.78
2022-10-03T11:51:43.637Z,99794.63
2022-10-03T11:57:26.972Z,99779.84
2022-10-03T12:03:16.588Z,99776.59
2022-10-03T12:08:42.385Z,99781.28
2022-10-03T12:14:19.810Z,99788.91
2022-10-03T12:19:53.401Z,99808.31
2022-10-03T12:25:20.387Z,99802.06
2022-10-03T12:30:47.983Z,99813.44
2022-10-03T12:36:14.119Z,99814.94
2022-10-03T12:42:06.269Z,99829.13
2022-10-03T12:47:56.681Z,99849.38
2022-10-03T12:53:18.632Z,99830.97
2022-10-03T12:58:44.176Z,99839.53
2022-10-03T13:04:27.761Z,99855.38
2022-10-03T13:10:01.612Z,99873.38
2022-10-03T13:15:42.097Z,99860.69
2022-10-03T13:27:20.216Z,99874.56
2022-10-03T13:32:47.241Z,99867.06
2022-10-03T13:38:11.853Z,99856.56
2022-10-03T13:43:38.517Z,99879.81
2022-10-03T13:49:02.752Z,99907.34
2022-10-03T13:54:54.807Z,99917.84
2022-10-03T14:00:21.020Z,99925.13
2022-10-03T14:06:18.003Z,99920.09
2022-10-03T14:12:01.491Z,99914.31
2022-10-03T14:17:51.507Z,99921.34
2022-10-03T14:23:16.004Z,99948.00
2022-10-03T14:28:47.910Z,99950.41
2022-10-03T14:34:28.006Z,99945.31
2022-10-03T14:40:14.693Z,99964.72
2022-10-03T14:45:52.472Z,99949.69
2022-10-03T14:51:29.910Z,99979.28
2022-10-03T14:56:53.919Z,99989.84
2022-10-03T15:02:37.479Z,99991.16
2022-10-03T15:07:59.405Z,99996.44
2022-10-03T15:13:24.956Z,100000.22
2022-10-03T15:18:53.817Z,100028.91
2022-10-03T15:24:25.301Z,100024.63
2022-10-03T15:29:54.157Z,100032.34
2022-10-03T15:35:24.839Z,100025.91
2022-10-03T15:40:52.763Z,100032.44
2022-10-03T15:46:33.971Z,100038.56
2022-10-03T15:51:59.755Z,100041.22
2022-10-03T15:57:29.541Z,100045.72
2022-10-03T16:03:00.428Z,100044.75
2022-10-03T16:08:28.077Z,100054.59
2022-10-03T16:14:14.941Z,100043.72
2022-10-03T16:19:48.529Z,100067.09
2022-10-03T16:25:21.708Z,100061.31
2022-10-03T16:30:56.944Z,100065.13
2022-10-03T16:36:20.279Z,100065.66
2022-10-03T16:41:42.850Z,100082.13
2022-10-03T16:47:06.791Z,100086.94
2022-10-03T16:52:35.559Z,100081.03
2022-10-03T16:58:04.324Z,100092.72
2022-10-03T17:03:32.752Z,100084.25
2022-10-03T17:08:59.220Z,100088.16
2022-10-03T17:14:22.364Z,100086.31
2022-10-03T17:19:58.156Z,100095.56
2022-10-03T17:25:49.392Z,100091.88
2022-10-03T17:31:24.980Z,100098.75
2022-10-03T17:36:55.949Z,100103.91
2022-10-03T17:42:37.050Z,100107.72
2022-10-03T17:48:09.224Z,100100.56
2022-10-03T17:53:36.598Z,100113.44
2022-10-03T17:59:07.832Z,100122.34
2022-10-03T18:04:42.013Z,100121.63
2022-10-03T18:10:07.368Z,100131.38
2022-10-03T18:16:06.343Z,100122.34
2022-10-03T18:21:42.148Z,100124.28
2022-10-03T18:27:16.378Z,100124.56
2022-10-03T18:32:39.986Z,100134.03
2022-10-03T18:38:14.750Z,100140.94
2022-10-03T18:43:38.061Z,100143.56
2022-10-03T18:49:31.778Z,100144.47
2022-10-03T18:55:04.815Z,100148.25
2022-10-03T19:00:31.140Z,100146.34
2022-10-03T19:06:04.270Z,100145.72
2022-10-03T19:11:39.310Z,100145.72
2022-10-03T19:17:12.268Z,100152.59
2022-10-03T19:22:39.753Z,100153.72
2022-10-03T19:28:25.765Z,100169.03
2022-10-03T19:33:52.010Z,100160.75
2022-10-03T19:39:17.412Z,100161.47
2022-10-03T19:44:40.245Z,100166.72
2022-10-03T19:50:12.978Z,100165.06
2022-10-03T19:55:35.697Z,100177.09
2022-10-03T20:01:00.180Z,100165.13
2022-10-03T20:06:29.776Z,100173.72
2022-10-03T20:12:02.692Z,100170.25
2022-10-03T20:17:25.092Z,100179.66
2022-10-03T20:22:47.058Z,100188.25
2022-10-03T20:28:22.731Z,100174.59
2022-10-03T20:33:44.731Z,100178.47
2022-10-03T20:39:28.291Z,100174.28
2022-10-03T20:45:01.424Z,100171.09
2022-10-03T20:50:25.727Z,100171.41
2022-10-03T20:55:50.199Z,100165.25
2022-10-03T21:01:17.441Z,100156.91
2022-10-03T21:06:57.960Z,100167.28
2022-10-03T21:12:25.173Z,100157.91
2022-10-03T21:17:49.005Z,100162.81
2022-10-03T21:23:20.466Z,100161.94
2022-10-03T21:28:42.336Z,100169.34
2022-10-03T21:34:16.300Z,100166.13
2022-10-03T21:40:14.326Z,100165.59
2022-10-03T21:45:53.643Z,100175.81
2022-10-03T21:51:28.720Z,100173.88
2022-10-03T21:57:01.238Z,100172.22
2022-10-03T22:02:58.429Z,100179.31
2022-10-03T22:08:29.018Z,100174.78
2022-10-03T22:13:56.830Z,100179.13
2022-10-03T22:19:25.875Z,100162.13
2022-10-03T22:25:00.022Z,100175.13
2022-10-03T22:30:22.449Z,100172.44
2022-10-03T22:35:55.272Z,100167.56
2022-10-03T22:41:24.057Z,100173.47
2022-10-03T22:46:50.781Z,100167.34
2022-10-03T22:52:24.206Z,100164.38
2022-10-03T22:57:46.858Z,100153.84
2022-10-03T23:03:14.492Z,100164.81
2022-10-03T23:08:36.247Z,100149.97
2022-10-03T23:14:06.412Z,100169.81
2022-10-03T23:19:46.218Z,100160.53
2022-10-03T23:25:24.508Z,100169.34
2022-10-03T23:30:50.554Z,100173.41
2022-10-03T23:36:22.184Z,100186.22
2022-10-03T23:41:45.241Z,100181.03
2022-10-03T23:47:11.655Z,100182.66
2022-10-03T23:52:47.251Z,100172.66
2022-10-03T23:58:20.641Z,100173.41
